Terminal Aerodrome Forecast
Issued by NWS Sioux Falls, SD

Home | Current Version | Previous Version | Text Only | Print | Product List | Glossary Off
Versions: 1 2 3 4 5 6 7 8 9 10 11 12 13 14

000
FTUS43 KFSD 221725
TAFHON
TAF
KHON 221725Z 2218/2318 17012G18KT P6SM SCT250
     FM230000 16010KT P6SM SCT120 BKN250
     FM230900 15010KT P6SM BKN050
      TEMPO 2311/2313 6SM -SHRA OVC040
     FM231500 14015KT P6SM SCT025 BKN035=

USA.gov is the U.S. government's official web portal to all federal, state and local government web resources and services.